createdAt,value
2023-05-18T00:02:08.635Z,96.30
2023-05-18T00:04:36.612Z,96.30
2023-05-18T00:07:05.032Z,96.70
2023-05-18T00:09:34.365Z,96.40
2023-05-18T00:12:02.265Z,96.60
2023-05-18T00:14:29.511Z,96.20
2023-05-18T00:16:56.902Z,96.50
2023-05-18T00:19:25.128Z,96.50
2023-05-18T00:21:52.720Z,96.60
2023-05-18T00:24:19.720Z,96.60
2023-05-18T00:26:48.050Z,96.70
2023-05-18T00:29:15.997Z,96.30
2023-05-18T00:31:45.124Z,96.20
2023-05-18T00:34:14.067Z,96.00
2023-05-18T00:36:41.522Z,95.80
2023-05-18T00:39:09.460Z,95.90
2023-05-18T00:41:36.482Z,96.10
2023-05-18T00:44:05.072Z,95.80
2023-05-18T00:46:32.545Z,95.60
2023-05-18T00:49:01.901Z,95.50
2023-05-18T00:51:29.951Z,95.20
2023-05-18T00:53:59.089Z,95.10
2023-05-18T00:56:26.653Z,95.00
2023-05-18T00:58:57.693Z,95.00
2023-05-18T01:01:30.167Z,94.90
2023-05-18T01:04:02.453Z,94.20
2023-05-18T01:06:36.208Z,94.60
2023-05-18T01:09:07.046Z,94.60
2023-05-18T01:11:52.002Z,94.50
2023-05-18T01:14:39.117Z,94.30
2023-05-18T01:17:18.185Z,94.40
2023-05-18T01:20:10.911Z,94.50
2023-05-18T01:23:29.784Z,94.00
2023-05-18T01:25:56.687Z,93.80
2023-05-18T01:28:27.123Z,93.80
2023-05-18T01:30:54.880Z,93.90
2023-05-18T01:33:21.792Z,94.00
2023-05-18T01:35:48.913Z,93.90
2023-05-18T01:38:22.455Z,93.80
2023-05-18T01:41:14.827Z,93.60
2023-05-18T01:43:59.079Z,93.60
2023-05-18T01:46:36.055Z,94.00
2023-05-18T01:49:11.193Z,93.70
2023-05-18T01:51:44.092Z,93.70
2023-05-18T01:54:12.719Z,93.70
2023-05-18T01:56:40.832Z,93.80
2023-05-18T01:59:08.313Z,94.00
2023-05-18T02:01:35.240Z,94.10
2023-05-18T02:04:02.348Z,94.40
2023-05-18T02:06:29.249Z,94.30
2023-05-18T02:08:56.087Z,94.10
2023-05-18T02:11:22.878Z,94.10
2023-05-18T02:13:49.657Z,94.30
2023-05-18T02:16:17.224Z,94.20
2023-05-18T02:18:44.884Z,94.10
2023-05-18T02:21:13.798Z,94.50
2023-05-18T02:23:41.516Z,94.30
2023-05-18T02:26:08.307Z,94.20
2023-05-18T02:28:35.109Z,94.30
2023-05-18T02:31:07.029Z,94.10
2023-05-18T02:33:39.830Z,94.10
2023-05-18T02:36:08.638Z,94.30
2023-05-18T02:38:40.613Z,94.60
2023-05-18T02:41:08.148Z,94.50
2023-05-18T02:43:35.152Z,94.30
2023-05-18T02:46:02.575Z,94.90
2023-05-18T02:48:29.656Z,94.70
2023-05-18T02:50:59.089Z,94.60
2023-05-18T02:53:26.550Z,94.60
2023-05-18T02:55:59.257Z,94.70
2023-05-18T02:58:26.087Z,94.80
2023-05-18T03:00:55.222Z,94.80
2023-05-18T03:03:23.840Z,94.80
2023-05-18T03:05:53.980Z,95.10
2023-05-18T03:08:22.960Z,95.50
2023-05-18T03:10:50.396Z,95.40
2023-05-18T03:13:17.363Z,95.20
2023-05-18T03:15:47.142Z,95.20
2023-05-18T03:18:14.036Z,95.20
2023-05-18T03:20:41.603Z,95.00
2023-05-18T03:23:08.430Z,95.00
2023-05-18T03:25:37.357Z,95.10
2023-05-18T03:28:05.582Z,95.20
2023-05-18T03:30:35.752Z,95.50
2023-05-18T03:33:02.988Z,95.20
2023-05-18T03:35:30.376Z,95.30
2023-05-18T03:37:57.495Z,95.30
2023-05-18T03:40:25.039Z,96.00
2023-05-18T03:42:52.029Z,95.80
2023-05-18T03:45:19.235Z,95.70
2023-05-18T03:47:46.316Z,95.70
2023-05-18T03:50:13.256Z,96.10
2023-05-18T03:52:41.538Z,95.90
2023-05-18T03:55:08.845Z,95.60
2023-05-18T03:57:35.866Z,96.00
2023-05-18T04:00:04.446Z,96.10
2023-05-18T04:02:31.722Z,96.20
2023-05-18T04:04:58.669Z,95.30
2023-05-18T04:07:25.503Z,95.60
2023-05-18T04:09:53.931Z,95.70
2023-05-18T04:12:21.078Z,95.50
2023-05-18T04:14:50.925Z,95.50
2023-05-18T04:17:22.256Z,95.90
2023-05-18T04:19:50.344Z,95.80
2023-05-18T04:22:17.316Z,95.50
2023-05-18T04:24:47.564Z,95.60
2023-05-18T04:27:15.297Z,95.30
2023-05-18T04:29:44.011Z,95.70
2023-05-18T04:32:11.083Z,95.60
2023-05-18T04:34:38.147Z,95.80
2023-05-18T04:37:05.894Z,95.80
2023-05-18T04:39:34.662Z,95.60
2023-05-18T04:42:02.336Z,96.10
2023-05-18T04:44:29.975Z,96.00
2023-05-18T04:46:56.999Z,95.90
2023-05-18T04:49:26.269Z,96.00
2023-05-18T04:51:59.025Z,96.10
2023-05-18T04:54:28.287Z,96.10
2023-05-18T04:56:55.095Z,96.20
2023-05-18T04:59:26.184Z,96.10
2023-05-18T05:01:53.920Z,96.40
2023-05-18T05:04:24.020Z,96.80
2023-05-18T05:06:51.232Z,96.20
2023-05-18T05:09:18.081Z,96.30
2023-05-18T05:11:44.952Z,96.40
2023-05-18T05:14:12.177Z,96.40
2023-05-18T05:16:39.898Z,96.20
2023-05-18T05:19:06.829Z,96.60
2023-05-18T05:21:33.712Z,96.50
2023-05-18T05:24:04.910Z,96.60
2023-05-18T05:26:31.918Z,96.40
2023-05-18T05:28:58.730Z,96.80
2023-05-18T05:31:25.557Z,96.80
2023-05-18T05:33:52.431Z,96.70
2023-05-18T05:36:19.221Z,96.50
2023-05-18T05:38:46.067Z,96.80
2023-05-18T05:41:12.907Z,97.10
2023-05-18T05:43:39.795Z,97.10
2023-05-18T05:46:06.565Z,97.00
2023-05-18T05:48:33.350Z,96.60
2023-05-18T05:51:00.202Z,96.50
2023-05-18T05:53:26.960Z,96.60
2023-05-18T05:55:53.737Z,96.70
2023-05-18T05:58:20.664Z,96.60
2023-05-18T06:00:47.456Z,96.50
2023-05-18T06:03:14.362Z,96.20
2023-05-18T06:05:41.374Z,96.20
2023-05-18T06:08:08.510Z,96.00
2023-05-18T06:10:35.484Z,96.20
2023-05-18T06:13:02.398Z,96.00
2023-05-18T06:15:29.395Z,95.80
2023-05-18T06:17:56.535Z,95.60
2023-05-18T06:20:23.412Z,95.60
2023-05-18T06:22:50.208Z,95.70
2023-05-18T06:25:17.765Z,95.80
2023-05-18T06:27:46.183Z,95.50
2023-05-18T06:30:13.334Z,95.30
2023-05-18T06:32:40.302Z,95.50
2023-05-18T06:35:07.646Z,95.60
2023-05-18T06:37:34.553Z,95.50
2023-05-18T06:40:01.464Z,95.50
2023-05-18T06:42:28.412Z,95.10
2023-05-18T06:44:55.223Z,95.10
2023-05-18T06:47:22.026Z,95.10
2023-05-18T06:49:48.948Z,95.10
2023-05-18T06:52:15.934Z,94.90
2023-05-18T06:54:43.282Z,94.80
2023-05-18T06:57:10.136Z,94.80
2023-05-18T06:59:36.914Z,94.80
2023-05-18T07:02:04.137Z,94.80
2023-05-18T07:04:31.630Z,94.80
2023-05-18T07:06:58.632Z,94.50
2023-05-18T07:09:26.028Z,94.80
2023-05-18T07:11:52.883Z,94.50
2023-05-18T07:14:19.855Z,94.60
2023-05-18T07:16:47.618Z,94.60
2023-05-18T07:19:15.144Z,94.50
2023-05-18T07:21:42.399Z,94.30
2023-05-18T07:24:09.445Z,94.20
2023-05-18T07:26:36.471Z,94.10
2023-05-18T07:29:03.525Z,94.10
2023-05-18T07:31:31.498Z,94.10
2023-05-18T07:33:58.397Z,94.10
2023-05-18T07:36:25.699Z,94.10
2023-05-18T07:38:55.649Z,94.10
2023-05-18T07:41:23.052Z,94.50
2023-05-18T07:43:51.205Z,94.40
2023-05-18T07:46:18.680Z,94.70
2023-05-18T07:48:46.422Z,94.10
2023-05-18T07:51:13.510Z,93.70
2023-05-18T07:53:41.522Z,94.10
2023-05-18T07:56:08.813Z,93.80
2023-05-18T07:58:36.938Z,93.90
2023-05-18T08:01:04.284Z,93.70
2023-05-18T08:03:31.542Z,93.70
2023-05-18T08:05:58.593Z,93.70
2023-05-18T08:08:25.519Z,93.40
2023-05-18T08:10:53.257Z,93.50
2023-05-18T08:13:20.224Z,93.70
2023-05-18T08:15:53.285Z,93.30
2023-05-18T08:18:26.965Z,93.20
2023-05-18T08:20:54.059Z,93.50
2023-05-18T08:23:21.093Z,93.60
2023-05-18T08:25:48.037Z,93.70
2023-05-18T08:28:14.911Z,93.40
2023-05-18T08:30:41.901Z,93.30
2023-05-18T08:33:09.399Z,93.90
2023-05-18T08:35:36.437Z,93.90
2023-05-18T08:38:05.535Z,93.80
2023-05-18T08:40:50.387Z,93.40
2023-05-18T08:43:23.469Z,93.30
2023-05-18T08:46:20.779Z,93.70
2023-05-18T08:48:50.906Z,93.50
2023-05-18T08:51:20.358Z,93.30
2023-05-18T08:53:54.445Z,93.30
2023-05-18T08:56:26.587Z,92.80
2023-05-18T08:58:56.901Z,92.60
2023-05-18T09:01:31.353Z,92.30
2023-05-18T09:03:59.949Z,92.10
2023-05-18T09:06:28.434Z,92.00
2023-05-18T09:09:00.031Z,92.20
2023-05-18T09:11:28.089Z,92.20
2023-05-18T09:13:55.620Z,92.00
2023-05-18T09:16:22.602Z,91.90
2023-05-18T09:18:49.601Z,91.90
2023-05-18T09:21:16.823Z,91.70
2023-05-18T09:23:44.681Z,92.00
2023-05-18T09:26:13.359Z,91.80
2023-05-18T09:28:41.088Z,92.10
2023-05-18T09:31:12.764Z,92.30
2023-05-18T09:33:40.409Z,92.10
2023-05-18T09:36:08.939Z,92.40
2023-05-18T09:38:45.706Z,92.20
2023-05-18T09:41:15.555Z,92.40
2023-05-18T09:43:43.938Z,92.40
2023-05-18T09:46:12.312Z,92.60
2023-05-18T09:48:53.193Z,92.70
2023-05-18T09:51:21.886Z,92.20
2023-05-18T09:53:53.886Z,92.20
2023-05-18T09:56:21.612Z,92.60
2023-05-18T09:58:48.483Z,92.60
2023-05-18T10:01:15.923Z,92.80
2023-05-18T10:03:45.237Z,92.40
2023-05-18T10:06:17.701Z,91.90
2023-05-18T10:08:45.611Z,92.20
2023-05-18T10:11:12.707Z,92.40
2023-05-18T10:13:42.524Z,92.40
2023-05-18T10:16:09.742Z,92.30
2023-05-18T10:18:38.438Z,92.80
2023-05-18T10:21:09.606Z,92.50
2023-05-18T10:23:37.494Z,92.30
2023-05-18T10:26:10.384Z,91.80
2023-05-18T10:28:47.315Z,92.40
2023-05-18T10:31:16.438Z,92.10
2023-05-18T10:36:12.012Z,92.30
2023-05-18T10:38:43.579Z,92.50
2023-05-18T10:41:12.518Z,92.30
2023-05-18T10:43:41.820Z,92.50
2023-05-18T10:46:09.565Z,92.20
2023-05-18T10:48:40.516Z,92.20
2023-05-18T10:51:08.320Z,91.90
2023-05-18T10:53:36.707Z,91.90
2023-05-18T10:56:03.829Z,92.10
2023-05-18T10:58:32.029Z,91.70
2023-05-18T11:01:05.070Z,91.40
2023-05-18T11:03:33.003Z,91.40
2023-05-18T11:06:10.397Z,91.40
2023-05-18T11:08:52.222Z,91.00
2023-05-18T11:11:26.436Z,91.20
2023-05-18T11:13:53.579Z,91.00
2023-05-18T11:16:20.960Z,90.90
2023-05-18T11:18:50.045Z,91.30
2023-05-18T11:21:21.897Z,91.40
2023-05-18T11:24:16.036Z,91.00
2023-05-18T11:26:45.524Z,91.30
2023-05-18T11:29:18.583Z,91.40
2023-05-18T11:31:51.384Z,91.60
2023-05-18T11:34:49.851Z,91.10
2023-05-18T11:37:38.600Z,90.10
2023-05-18T11:40:11.268Z,90.20
2023-05-18T11:42:38.871Z,90.70
2023-05-18T11:45:09.644Z,90.20
2023-05-18T11:47:38.036Z,89.80
2023-05-18T11:50:08.445Z,89.80
2023-05-18T11:52:49.724Z,90.10
2023-05-18T11:55:19.283Z,89.30
2023-05-18T11:57:49.884Z,89.40
2023-05-18T12:00:17.410Z,89.70
2023-05-18T12:02:46.662Z,89.90
2023-05-18T12:05:14.336Z,90.20
2023-05-18T12:07:42.095Z,89.90
2023-05-18T12:10:14.840Z,89.80
2023-05-18T12:12:43.144Z,89.60
2023-05-18T12:15:11.893Z,90.30
2023-05-18T12:17:49.797Z,90.00
2023-05-18T12:20:21.717Z,89.60
2023-05-18T12:22:50.434Z,90.00
2023-05-18T12:25:17.520Z,88.70
2023-05-18T12:27:45.890Z,87.20
2023-05-18T12:30:16.212Z,84.90
2023-05-18T12:32:53.730Z,86.00
2023-05-18T12:35:25.805Z,87.20
2023-05-18T12:37:55.569Z,87.20
2023-05-18T12:40:23.356Z,87.90
2023-05-18T12:42:54.538Z,87.60
2023-05-18T12:45:26.992Z,88.50
2023-05-18T12:47:55.630Z,87.60
2023-05-18T12:50:24.008Z,86.80
2023-05-18T12:52:52.310Z,87.10
2023-05-18T12:55:23.255Z,86.60
2023-05-18T12:58:14.653Z,87.00
2023-05-18T13:00:47.869Z,86.30
2023-05-18T13:03:20.644Z,86.70
2023-05-18T13:06:11.133Z,84.60
2023-05-18T13:08:38.176Z,84.70
2023-05-18T13:11:13.535Z,84.50
2023-05-18T13:14:12.661Z,84.20
2023-05-18T13:16:45.738Z,84.00
2023-05-18T13:19:17.892Z,84.10
2023-05-18T13:21:45.497Z,85.20
2023-05-18T13:24:13.308Z,85.60
2023-05-18T13:26:40.942Z,85.40
2023-05-18T13:29:08.680Z,86.30
2023-05-18T13:31:36.096Z,86.40
2023-05-18T13:34:03.743Z,86.40
2023-05-18T13:36:32.788Z,85.20
2023-05-18T13:39:00.151Z,85.00
2023-05-18T13:41:27.095Z,86.90
2023-05-18T13:43:53.966Z,85.60
2023-05-18T13:46:20.970Z,86.00
2023-05-18T13:48:47.832Z,86.50
2023-05-18T13:51:14.759Z,87.20
2023-05-18T13:53:41.555Z,88.20
2023-05-18T13:56:08.492Z,86.80
2023-05-18T13:58:36.122Z,86.40
2023-05-18T14:01:07.837Z,87.10
2023-05-18T14:03:36.710Z,86.20
2023-05-18T14:06:04.027Z,86.90
2023-05-18T14:08:30.943Z,85.80
2023-05-18T14:10:57.791Z,85.70
2023-05-18T14:13:24.554Z,86.50
2023-05-18T14:15:51.503Z,86.70
2023-05-18T14:18:18.466Z,87.20
2023-05-18T14:20:47.678Z,87.90
2023-05-18T14:23:14.545Z,88.50
2023-05-18T14:25:43.620Z,89.10
2023-05-18T14:28:10.699Z,87.70
2023-05-18T14:30:37.611Z,86.10
2023-05-18T14:33:04.524Z,86.30
2023-05-18T14:35:31.470Z,86.80
2023-05-18T14:37:58.250Z,85.70
2023-05-18T14:40:25.043Z,85.30
2023-05-18T14:42:53.816Z,86.20
2023-05-18T14:45:21.197Z,86.30
2023-05-18T14:47:48.130Z,86.60
2023-05-18T14:50:15.056Z,84.90
2023-05-18T14:52:41.967Z,85.10
2023-05-18T14:55:09.387Z,84.80
2023-05-18T14:57:36.318Z,85.40
2023-05-18T15:00:03.502Z,85.80
2023-05-18T15:02:31.035Z,85.50
2023-05-18T15:04:58.169Z,85.80
2023-05-18T15:07:25.077Z,86.40
2023-05-18T15:09:51.845Z,86.10
2023-05-18T15:12:19.748Z,85.70
2023-05-18T15:14:46.580Z,85.60
2023-05-18T15:17:15.082Z,86.40
2023-05-18T15:19:42.089Z,87.00
2023-05-18T15:22:09.093Z,87.30
2023-05-18T15:24:36.045Z,87.70
2023-05-18T15:27:03.311Z,87.20
2023-05-18T15:29:30.259Z,87.90
2023-05-18T15:31:57.099Z,88.40
2023-05-18T15:34:23.926Z,88.60
2023-05-18T15:36:51.249Z,89.00
2023-05-18T15:39:18.344Z,88.10
2023-05-18T15:41:45.324Z,88.40
2023-05-18T15:44:12.193Z,90.00
2023-05-18T15:46:39.046Z,89.50
2023-05-18T15:49:05.929Z,89.40
2023-05-18T15:51:32.788Z,89.80
2023-05-18T15:53:59.619Z,89.20
2023-05-18T15:56:27.021Z,89.10
2023-05-18T15:58:53.898Z,89.60
2023-05-18T16:01:20.804Z,89.80
2023-05-18T16:03:47.816Z,89.30
2023-05-18T16:06:14.669Z,89.70
2023-05-18T16:08:41.842Z,89.80
2023-05-18T16:11:08.754Z,90.10
2023-05-18T16:13:35.572Z,90.00
2023-05-18T16:16:03.746Z,89.70
2023-05-18T16:18:30.607Z,89.50
2023-05-18T16:20:57.553Z,90.00
2023-05-18T16:23:24.454Z,89.90
2023-05-18T16:25:51.242Z,89.90
2023-05-18T16:28:18.319Z,90.10
2023-05-18T16:30:45.179Z,90.20
2023-05-18T16:33:12.046Z,90.10
2023-05-18T16:35:39.059Z,90.10
2023-05-18T16:38:05.874Z,90.30
2023-05-18T16:40:32.962Z,90.10
2023-05-18T16:42:59.964Z,89.80
2023-05-18T16:45:27.935Z,90.10
2023-05-18T16:47:54.934Z,90.20
2023-05-18T16:50:21.880Z,90.20
2023-05-18T16:52:48.874Z,89.10
2023-05-18T16:55:15.941Z,88.80
2023-05-18T16:57:43.428Z,89.10
2023-05-18T17:00:11.419Z,89.30
2023-05-18T17:02:39.402Z,89.50
2023-05-18T17:05:08.588Z,89.90
2023-05-18T17:07:36.237Z,90.00
2023-05-18T17:10:06.977Z,90.10
2023-05-18T17:12:33.893Z,90.10
2023-05-18T17:15:03.188Z,90.00
2023-05-18T17:17:30.098Z,90.00
2023-05-18T17:19:57.078Z,90.10
2023-05-18T17:22:24.263Z,90.10
2023-05-18T17:24:51.144Z,90.10
2023-05-18T17:27:18.062Z,90.20
2023-05-18T17:29:44.888Z,90.40
2023-05-18T17:32:11.667Z,90.30
2023-05-18T17:34:38.503Z,90.60
2023-05-18T17:37:05.567Z,90.50
2023-05-18T17:39:32.392Z,90.60
2023-05-18T17:42:00.259Z,90.60
2023-05-18T17:44:27.252Z,90.60
2023-05-18T17:46:54.106Z,90.70
2023-05-18T17:49:21.348Z,90.80
2023-05-18T17:51:48.305Z,90.80
2023-05-18T17:54:15.594Z,90.80
2023-05-18T17:56:42.472Z,91.00
2023-05-18T17:59:09.492Z,90.90
2023-05-18T18:01:37.876Z,91.30
2023-05-18T18:04:04.956Z,91.60
2023-05-18T18:06:35.618Z,91.50
2023-05-18T18:09:04.882Z,91.90
2023-05-18T18:11:31.976Z,91.70
2023-05-18T18:13:59.670Z,91.80
2023-05-18T18:16:26.614Z,92.20
2023-05-18T18:18:53.592Z,92.30
2023-05-18T18:21:20.438Z,92.80
2023-05-18T18:23:47.280Z,92.90
2023-05-18T18:26:14.178Z,92.60
2023-05-18T18:28:41.658Z,93.30
2023-05-18T18:31:08.699Z,93.10
2023-05-18T18:33:35.626Z,93.00
2023-05-18T18:36:05.527Z,93.30
2023-05-18T18:38:33.924Z,94.30
2023-05-18T18:41:04.347Z,94.70
2023-05-18T18:43:31.773Z,95.20
2023-05-18T18:45:59.334Z,96.00
2023-05-18T18:48:26.690Z,96.10
2023-05-18T18:50:53.650Z,96.40
2023-05-18T18:53:20.604Z,96.70
2023-05-18T18:55:47.536Z,97.00
2023-05-18T18:58:14.397Z,97.40
2023-05-18T19:00:41.309Z,97.70
2023-05-18T19:03:09.905Z,98.10
2023-05-18T19:05:37.476Z,98.40
2023-05-18T19:08:04.438Z,98.60
2023-05-18T19:10:32.944Z,98.80
2023-05-18T19:13:04.961Z,99.00
2023-05-18T19:15:35.296Z,99.10
2023-05-18T19:18:06.603Z,99.30
2023-05-18T19:20:34.199Z,99.40
2023-05-18T19:23:01.423Z,99.60
2023-05-18T19:25:29.886Z,99.70
2023-05-18T19:27:56.982Z,99.90
2023-05-18T19:30:23.912Z,99.90
2023-05-18T19:32:54.054Z,99.90
2023-05-18T19:35:21.916Z,99.90
2023-05-18T19:37:48.741Z,99.90
2023-05-18T19:40:16.759Z,99.90
2023-05-18T19:42:43.606Z,99.90
2023-05-18T19:45:10.623Z,99.90
2023-05-18T19:47:37.566Z,99.90
2023-05-18T19:50:04.786Z,99.90
2023-05-18T19:52:33.473Z,99.90
2023-05-18T19:55:00.608Z,99.90
2023-05-18T19:57:27.459Z,99.90
2023-05-18T19:59:54.282Z,99.90
2023-05-18T20:02:21.084Z,99.90
2023-05-18T20:04:48.472Z,99.90
2023-05-18T20:07:15.481Z,99.90
2023-05-18T20:09:42.366Z,99.90
2023-05-18T20:12:09.367Z,99.90
2023-05-18T20:14:36.821Z,99.90
2023-05-18T20:17:04.339Z,99.90
2023-05-18T20:19:32.985Z,99.90
2023-05-18T20:21:59.899Z,99.90
2023-05-18T20:24:26.767Z,99.90
2023-05-18T20:26:53.710Z,99.90
2023-05-18T20:29:20.607Z,99.90
2023-05-18T20:31:47.544Z,99.90
2023-05-18T20:34:14.473Z,99.80
2023-05-18T20:36:41.343Z,99.60
2023-05-18T20:39:09.069Z,99.40
2023-05-18T20:41:40.115Z,99.30
2023-05-18T20:44:10.600Z,98.80
2023-05-18T20:46:38.414Z,98.10
2023-05-18T20:49:05.615Z,97.80
2023-05-18T20:51:32.488Z,97.80
2023-05-18T20:53:59.273Z,97.30
2023-05-18T20:56:26.757Z,97.20
2023-05-18T20:58:53.964Z,97.00
2023-05-18T21:01:21.701Z,96.90
2023-05-18T21:03:48.756Z,96.90
2023-05-18T21:06:15.901Z,97.00
2023-05-18T21:08:45.784Z,97.00
2023-05-18T21:11:12.811Z,97.00
2023-05-18T21:13:39.661Z,97.00
2023-05-18T21:16:08.483Z,96.90
2023-05-18T21:18:35.982Z,96.90
2023-05-18T21:21:03.210Z,96.90
2023-05-18T21:23:30.169Z,96.90
2023-05-18T21:25:57.398Z,96.90
2023-05-18T21:28:27.091Z,96.90
2023-05-18T21:30:56.758Z,96.90
2023-05-18T21:33:23.745Z,96.90
2023-05-18T21:35:51.503Z,97.00
2023-05-18T21:38:18.462Z,97.10
2023-05-18T21:40:48.027Z,97.10
2023-05-18T21:43:15.249Z,97.20
2023-05-18T21:45:45.442Z,97.40
2023-05-18T21:48:12.455Z,97.50
2023-05-18T21:50:39.356Z,97.60
2023-05-18T21:53:06.672Z,97.70
2023-05-18T21:55:39.941Z,97.80
2023-05-18T21:58:06.895Z,97.70
2023-05-18T22:00:35.481Z,97.80
2023-05-18T22:03:02.553Z,97.80
2023-05-18T22:05:29.469Z,97.90
2023-05-18T22:07:56.957Z,98.10
2023-05-18T22:10:23.818Z,98.10
2023-05-18T22:12:50.720Z,98.10
2023-05-18T22:15:22.397Z,98.20
2023-05-18T22:17:49.681Z,98.40
2023-05-18T22:20:17.493Z,98.50
2023-05-18T22:22:46.701Z,98.50
2023-05-18T22:25:13.985Z,98.60
2023-05-18T22:27:41.184Z,98.60
2023-05-18T22:30:08.968Z,98.80
2023-05-18T22:32:36.058Z,98.80
2023-05-18T22:35:03.253Z,98.80
2023-05-18T22:37:34.065Z,98.80
2023-05-18T22:40:05.134Z,98.90
2023-05-18T22:42:32.415Z,98.90
2023-05-18T22:44:59.205Z,99.10
2023-05-18T22:47:28.333Z,99.20
2023-05-18T22:49:55.184Z,99.30
2023-05-18T22:52:22.451Z,99.40
2023-05-18T22:54:50.305Z,99.20
2023-05-18T22:57:17.111Z,99.30
2023-05-18T22:59:43.925Z,99.40
2023-05-18T23:02:10.929Z,99.60
2023-05-18T23:04:37.952Z,99.70
2023-05-18T23:07:05.145Z,99.60
2023-05-18T23:09:31.926Z,99.60
2023-05-18T23:12:01.189Z,99.70
2023-05-18T23:14:32.553Z,99.90
2023-05-18T23:17:00.217Z,99.90
2023-05-18T23:19:27.411Z,99.90
2023-05-18T23:21:54.307Z,99.90
2023-05-18T23:24:21.257Z,99.90
2023-05-18T23:26:48.260Z,99.90
2023-05-18T23:29:15.102Z,99.90
2023-05-18T23:31:41.892Z,99.90
2023-05-18T23:34:08.976Z,99.90
2023-05-18T23:36:38.899Z,99.90
2023-05-18T23:39:07.048Z,99.90
2023-05-18T23:41:35.853Z,99.90
2023-05-18T23:44:03.072Z,99.90
2023-05-18T23:46:30.767Z,99.90
2023-05-18T23:48:59.788Z,99.90
2023-05-18T23:51:29.889Z,99.90
2023-05-18T23:53:57.463Z,99.90
2023-05-18T23:56:25.049Z,99.90
2023-05-18T23:58:52.150Z,99.90
